sensor_id;sensor_type;location;lat;lon;timestamp;pressure;altitude;pressure_sealevel;temperature;humidity
59063;BME280;44851;45.648;9.004;2023-06-10T00:00:40;98627.47;;;22.27;63.20
59063;BME280;44851;45.648;9.004;2023-06-10T00:03:10;98622.47;;;22.19;63.06
59063;BME280;44851;45.648;9.004;2023-06-10T00:05:37;98625.34;;;22.18;61.99
59063;BME280;44851;45.648;9.004;2023-06-10T00:08:05;98623.34;;;22.13;61.12
59063;BME280;44851;45.648;9.004;2023-06-10T00:10:34;98635.22;;;22.11;60.82
59063;BME280;44851;45.648;9.004;2023-06-10T00:13:01;98631.31;;;22.13;60.15
59063;BME280;44851;45.648;9.004;2023-06-10T00:15:27;98627.53;;;22.21;59.77
59063;BME280;44851;45.648;9.004;2023-06-10T00:17:53;98623.78;;;22.10;59.61
59063;BME280;44851;45.648;9.004;2023-06-10T00:20:20;98633.13;;;22.01;59.23
59063;BME280;44851;45.648;9.004;2023-06-10T00:22:47;98631.19;;;22.08;59.41
59063;BME280;44851;45.648;9.004;2023-06-10T00:25:14;98627.47;;;22.09;59.34
59063;BME280;44851;45.648;9.004;2023-06-10T00:27:40;98626.31;;;22.05;59.47
59063;BME280;44851;45.648;9.004;2023-06-10T00:30:06;98632.78;;;22.09;59.34
59063;BME280;44851;45.648;9.004;2023-06-10T00:32:36;98624.41;;;22.12;58.71
59063;BME280;44851;45.648;9.004;2023-06-10T00:35:02;98623.34;;;22.13;58.66
59063;BME280;44851;45.648;9.004;2023-06-10T00:37:28;98619.91;;;22.13;59.05
59063;BME280;44851;45.648;9.004;2023-06-10T00:39:54;98617.69;;;22.10;58.54
59063;BME280;44851;45.648;9.004;2023-06-10T00:42:20;98619.09;;;22.12;58.85
59063;BME280;44851;45.648;9.004;2023-06-10T00:44:47;98619.84;;;22.01;59.25
59063;BME280;44851;45.648;9.004;2023-06-10T00:47:13;98614.81;;;21.93;58.99
59063;BME280;44851;45.648;9.004;2023-06-10T00:49:39;98614.06;;;22.04;58.95
59063;BME280;44851;45.648;9.004;2023-06-10T00:52:06;98617.25;;;21.94;58.49
59063;BME280;44851;45.648;9.004;2023-06-10T00:54:32;98618.00;;;22.01;59.16
59063;BME280;44851;45.648;9.004;2023-06-10T00:57:00;98616.81;;;21.97;58.64
59063;BME280;44851;45.648;9.004;2023-06-10T00:59:27;98620.50;;;21.96;59.09
59063;BME280;44851;45.648;9.004;2023-06-10T01:01:53;98612.63;;;21.90;59.36
59063;BME280;44851;45.648;9.004;2023-06-10T01:04:19;98602.81;;;21.90;59.13
59063;BME280;44851;45.648;9.004;2023-06-10T01:06:56;98615.94;;;21.85;58.74
59063;BME280;44851;45.648;9.004;2023-06-10T01:12:39;98614.25;;;21.91;59.61
59063;BME280;44851;45.648;9.004;2023-06-10T01:15:07;98608.63;;;21.80;59.65
59063;BME280;44851;45.648;9.004;2023-06-10T01:17:34;98606.44;;;21.96;59.50
59063;BME280;44851;45.648;9.004;2023-06-10T01:20:01;98607.09;;;21.91;60.15
59063;BME280;44851;45.648;9.004;2023-06-10T01:22:36;98610.09;;;21.95;59.70
59063;BME280;44851;45.648;9.004;2023-06-10T01:25:02;98611.13;;;21.94;59.77
59063;BME280;44851;45.648;9.004;2023-06-10T01:27:30;98612.16;;;21.93;59.24
59063;BME280;44851;45.648;9.004;2023-06-10T01:30:11;98610.94;;;21.95;59.17
59063;BME280;44851;45.648;9.004;2023-06-10T01:32:45;98616.63;;;22.11;59.48
59063;BME280;44851;45.648;9.004;2023-06-10T01:35:13;98611.28;;;21.99;60.03
59063;BME280;44851;45.648;9.004;2023-06-10T01:37:40;98617.63;;;21.98;59.71
59063;BME280;44851;45.648;9.004;2023-06-10T01:40:08;98612.84;;;22.06;59.74
59063;BME280;44851;45.648;9.004;2023-06-10T01:42:34;98618.34;;;22.05;59.47
59063;BME280;44851;45.648;9.004;2023-06-10T01:45:00;98622.19;;;22.09;59.10
59063;BME280;44851;45.648;9.004;2023-06-10T01:47:26;98615.25;;;22.08;59.41
59063;BME280;44851;45.648;9.004;2023-06-10T01:49:51;98622.19;;;22.09;59.32
59063;BME280;44851;45.648;9.004;2023-06-10T01:52:17;98612.47;;;22.03;59.78
59063;BME280;44851;45.648;9.004;2023-06-10T01:54:43;98607.53;;;21.88;59.65
59063;BME280;44851;45.648;9.004;2023-06-10T01:57:08;98607.31;;;21.90;59.89
59063;BME280;44851;45.648;9.004;2023-06-10T01:59:33;98610.31;;;21.93;59.17
59063;BME280;44851;45.648;9.004;2023-06-10T02:01:59;98602.59;;;21.92;60.11
59063;BME280;44851;45.648;9.004;2023-06-10T02:04:25;98598.00;;;21.80;58.87
59063;BME280;44851;45.648;9.004;2023-06-10T02:06:50;98604.69;;;21.83;59.50
59063;BME280;44851;45.648;9.004;2023-06-10T02:09:16;98600.38;;;21.89;59.68
59063;BME280;44851;45.648;9.004;2023-06-10T02:11:43;98605.81;;;21.75;60.21
59063;BME280;44851;45.648;9.004;2023-06-10T02:14:09;98598.00;;;21.80;59.78
59063;BME280;44851;45.648;9.004;2023-06-10T02:16:34;98601.84;;;21.85;59.48
59063;BME280;44851;45.648;9.004;2023-06-10T02:19:00;98597.72;;;21.70;59.21
59063;BME280;44851;45.648;9.004;2023-06-10T02:21:25;98593.72;;;21.61;59.30
59063;BME280;44851;45.648;9.004;2023-06-10T02:23:51;98599.56;;;21.70;60.13
59063;BME280;44851;45.648;9.004;2023-06-10T02:26:16;98588.34;;;21.68;60.11
59063;BME280;44851;45.648;9.004;2023-06-10T02:28:42;98596.75;;;21.65;60.70
59063;BME280;44851;45.648;9.004;2023-06-10T02:31:08;98600.22;;;21.65;60.08
59063;BME280;44851;45.648;9.004;2023-06-10T02:33:34;98597.63;;;21.59;60.78
59063;BME280;44851;45.648;9.004;2023-06-10T02:35:59;98599.16;;;21.66;60.25
59063;BME280;44851;45.648;9.004;2023-06-10T02:38:24;98596.81;;;21.58;60.84
59063;BME280;44851;45.648;9.004;2023-06-10T02:40:50;98595.34;;;21.62;60.98
59063;BME280;44851;45.648;9.004;2023-06-10T02:43:15;98599.09;;;21.54;61.18
59063;BME280;44851;45.648;9.004;2023-06-10T02:45:41;98592.75;;;21.55;61.17
59063;BME280;44851;45.648;9.004;2023-06-10T02:48:06;98586.81;;;21.60;60.74
59063;BME280;44851;45.648;9.004;2023-06-10T02:50:32;98589.69;;;21.59;61.33
59063;BME280;44851;45.648;9.004;2023-06-10T02:52:57;98583.63;;;21.51;61.21
59063;BME280;44851;45.648;9.004;2023-06-10T02:55:23;98587.31;;;21.50;61.59
59063;BME280;44851;45.648;9.004;2023-06-10T02:57:51;98586.13;;;21.46;61.61
59063;BME280;44851;45.648;9.004;2023-06-10T03:00:18;98578.84;;;21.42;61.63
59063;BME280;44851;45.648;9.004;2023-06-10T03:02:45;98581.63;;;21.47;61.80
59063;BME280;44851;45.648;9.004;2023-06-10T03:05:11;98579.28;;;21.39;62.03
59063;BME280;44851;45.648;9.004;2023-06-10T03:07:38;98575.59;;;21.40;62.17
59063;BME280;44851;45.648;9.004;2023-06-10T03:10:05;98568.16;;;21.48;61.58
59063;BME280;44851;45.648;9.004;2023-06-10T03:12:31;98571.47;;;21.44;62.28
59063;BME280;44851;45.648;9.004;2023-06-10T03:14:57;98576.31;;;21.47;61.96
59063;BME280;44851;45.648;9.004;2023-06-10T03:17:23;98576.31;;;21.47;61.96
59063;BME280;44851;45.648;9.004;2023-06-10T03:19:48;98575.59;;;21.40;62.30
59063;BME280;44851;45.648;9.004;2023-06-10T03:22:15;98576.47;;;21.34;62.50
59063;BME280;44851;45.648;9.004;2023-06-10T03:24:41;98575.19;;;21.36;62.55
59063;BME280;44851;45.648;9.004;2023-06-10T03:27:12;98572.78;;;21.35;62.05
59063;BME280;44851;45.648;9.004;2023-06-10T03:29:38;98576.31;;;21.28;62.71
59063;BME280;44851;45.648;9.004;2023-06-10T03:32:04;98574.41;;;21.36;63.10
59063;BME280;44851;45.648;9.004;2023-06-10T03:34:30;98572.84;;;21.28;62.38
59063;BME280;44851;45.648;9.004;2023-06-10T03:36:56;98571.16;;;21.34;62.85
59063;BME280;44851;45.648;9.004;2023-06-10T03:39:22;98576.78;;;21.44;61.79
59063;BME280;44851;45.648;9.004;2023-06-10T03:41:49;98574.47;;;21.29;62.71
59063;BME280;44851;45.648;9.004;2023-06-10T03:44:14;98577.78;;;21.24;63.10
59063;BME280;44851;45.648;9.004;2023-06-10T03:46:40;98576.09;;;21.30;62.62
59063;BME280;44851;45.648;9.004;2023-06-10T03:49:06;98581.78;;;21.34;62.88
59063;BME280;44851;45.648;9.004;2023-06-10T03:51:32;98584.56;;;21.39;62.65
59063;BME280;44851;45.648;9.004;2023-06-10T03:53:57;98577.13;;;21.29;62.69
59063;BME280;44851;45.648;9.004;2023-06-10T03:56:23;98578.53;;;21.32;62.89
59063;BME280;44851;45.648;9.004;2023-06-10T03:58:48;98585.13;;;21.22;63.30
59063;BME280;44851;45.648;9.004;2023-06-10T04:01:13;98589.63;;;21.22;63.80
59063;BME280;44851;45.648;9.004;2023-06-10T04:03:39;98592.44;;;21.27;63.28
59063;BME280;44851;45.648;9.004;2023-06-10T04:06:07;98587.94;;;21.27;63.67
59063;BME280;44851;45.648;9.004;2023-06-10T04:08:33;98591.63;;;21.26;63.31
59063;BME280;44851;45.648;9.004;2023-06-10T04:10:58;98587.88;;;21.34;63.42
59063;BME280;44851;45.648;9.004;2023-06-10T04:13:24;98591.50;;;21.40;63.48
59063;BME280;44851;45.648;9.004;2023-06-10T04:15:49;98588.25;;;21.38;63.73
59063;BME280;44851;45.648;9.004;2023-06-10T04:18:15;98583.13;;;21.43;63.32
59063;BME280;44851;45.648;9.004;2023-06-10T04:20:41;98585.31;;;21.46;63.18
59063;BME280;44851;45.648;9.004;2023-06-10T04:23:06;98584.88;;;21.49;63.61
59063;BME280;44851;45.648;9.004;2023-06-10T04:25:32;98578.16;;;21.46;64.07
59063;BME280;44851;45.648;9.004;2023-06-10T04:27:57;98572.50;;;21.43;63.57
59063;BME280;44851;45.648;9.004;2023-06-10T04:30:23;98585.47;;;21.33;63.53
59063;BME280;44851;45.648;9.004;2023-06-10T04:32:48;98580.97;;;21.33;63.97
59063;BME280;44851;45.648;9.004;2023-06-10T04:35:15;98572.78;;;21.35;63.45
59063;BME280;44851;45.648;9.004;2023-06-10T04:37:40;98574.78;;;21.39;62.86
59063;BME280;44851;45.648;9.004;2023-06-10T04:40:07;98569.09;;;21.36;62.98
59063;BME280;44851;45.648;9.004;2023-06-10T04:42:33;98573.97;;;21.39;63.13
59063;BME280;44851;45.648;9.004;2023-06-10T04:44:58;98567.84;;;21.38;63.39
59063;BME280;44851;45.648;9.004;2023-06-10T04:47:25;98567.78;;;21.45;63.12
59063;BME280;44851;45.648;9.004;2023-06-10T04:49:51;98584.72;;;21.44;62.92
59063;BME280;44851;45.648;9.004;2023-06-10T04:52:17;98577.19;;;21.41;62.96
59063;BME280;44851;45.648;9.004;2023-06-10T04:54:43;98580.66;;;21.41;63.11
59063;BME280;44851;45.648;9.004;2023-06-10T04:57:08;98571.09;;;21.40;63.18
59063;BME280;44851;45.648;9.004;2023-06-10T04:59:34;98575.66;;;21.51;63.53
59063;BME280;44851;45.648;9.004;2023-06-10T05:02:03;98577.06;;;21.54;63.31
59063;BME280;44851;45.648;9.004;2023-06-10T05:04:29;98584.38;;;21.59;62.94
59063;BME280;44851;45.648;9.004;2023-06-10T05:06:55;98579.41;;;21.62;62.83
59063;BME280;44851;45.648;9.004;2023-06-10T05:09:20;98576.56;;;21.64;62.25
59063;BME280;44851;45.648;9.004;2023-06-10T05:11:46;98581.56;;;21.53;63.13
59063;BME280;44851;45.648;9.004;2023-06-10T05:14:11;98579.88;;;21.59;63.53
59063;BME280;44851;45.648;9.004;2023-06-10T05:16:37;98582.22;;;21.67;63.14
59063;BME280;44851;45.648;9.004;2023-06-10T05:19:03;98577.72;;;21.68;63.61
59063;BME280;44851;45.648;9.004;2023-06-10T05:21:29;98573.97;;;21.75;62.47
59063;BME280;44851;45.648;9.004;2023-06-10T05:23:55;98587.22;;;21.57;63.28
59063;BME280;44851;45.648;9.004;2023-06-10T05:26:21;98582.16;;;21.74;62.87
59063;BME280;44851;45.648;9.004;2023-06-10T05:28:47;98583.78;;;21.75;62.97
59063;BME280;44851;45.648;9.004;2023-06-10T05:31:12;98584.28;;;21.65;63.44
59063;BME280;44851;45.648;9.004;2023-06-10T05:33:38;98576.03;;;21.73;62.75
59063;BME280;44851;45.648;9.004;2023-06-10T05:36:04;98578.47;;;21.75;62.61
59063;BME280;44851;45.648;9.004;2023-06-10T05:38:30;98583.31;;;21.78;63.22
59063;BME280;44851;45.648;9.004;2023-06-10T05:40:55;98592.69;;;21.80;61.39
59063;BME280;44851;45.648;9.004;2023-06-10T05:43:22;98589.75;;;21.89;62.11
59063;BME280;44851;45.648;9.004;2023-06-10T05:45:47;98589.28;;;21.73;61.41
59063;BME280;44851;45.648;9.004;2023-06-10T05:48:13;98598.22;;;21.79;61.69
59063;BME280;44851;45.648;9.004;2023-06-10T05:50:39;98596.44;;;21.73;61.12
59063;BME280;44851;45.648;9.004;2023-06-10T05:53:07;98597.41;;;21.78;60.83
59063;BME280;44851;45.648;9.004;2023-06-10T05:55:41;98600.66;;;21.80;61.06
59063;BME280;44851;45.648;9.004;2023-06-10T05:58:06;98593.88;;;21.85;61.16
59063;BME280;44851;45.648;9.004;2023-06-10T06:00:32;98598.44;;;21.77;61.44
59063;BME280;44851;45.648;9.004;2023-06-10T06:02:57;98598.81;;;21.81;61.26
59063;BME280;44851;45.648;9.004;2023-06-10T06:05:24;98594.63;;;21.92;61.08
59063;BME280;44851;45.648;9.004;2023-06-10T06:07:49;98598.16;;;22.04;60.81
59063;BME280;44851;45.648;9.004;2023-06-10T06:10:17;98600.84;;;21.86;61.72
59063;BME280;44851;45.648;9.004;2023-06-10T06:12:42;98594.75;;;21.78;61.91
59063;BME280;44851;45.648;9.004;2023-06-10T06:15:09;98600.84;;;21.86;61.27
59063;BME280;44851;45.648;9.004;2023-06-10T06:17:35;98609.28;;;21.76;62.11
59063;BME280;44851;45.648;9.004;2023-06-10T06:20:01;98607.16;;;21.85;61.67
59063;BME280;44851;45.648;9.004;2023-06-10T06:22:27;98607.56;;;21.81;61.30
59063;BME280;44851;45.648;9.004;2023-06-10T06:24:52;98601.41;;;21.88;61.44
59063;BME280;44851;45.648;9.004;2023-06-10T06:27:18;98603.16;;;21.94;61.11
59063;BME280;44851;45.648;9.004;2023-06-10T06:29:43;98602.72;;;21.97;61.51
59063;BME280;44851;45.648;9.004;2023-06-10T06:32:08;98605.97;;;21.99;61.55
59063;BME280;44851;45.648;9.004;2023-06-10T06:34:34;98602.00;;;21.90;60.95
59063;BME280;44851;45.648;9.004;2023-06-10T06:36:59;98599.47;;;21.95;60.53
59063;BME280;44851;45.648;9.004;2023-06-10T06:39:25;98596.75;;;22.01;61.48
59063;BME280;44851;45.648;9.004;2023-06-10T06:41:50;98603.44;;;22.04;60.96
59063;BME280;44851;45.648;9.004;2023-06-10T06:44:16;98602.41;;;22.05;60.93
59063;BME280;44851;45.648;9.004;2023-06-10T06:46:41;98611.28;;;21.99;60.22
59063;BME280;44851;45.648;9.004;2023-06-10T06:49:07;98599.03;;;21.98;61.25
59063;BME280;44851;45.648;9.004;2023-06-10T06:51:32;98602.94;;;22.14;60.96
59063;BME280;44851;45.648;9.004;2023-06-10T06:53:57;98602.88;;;22.32;60.53
59063;BME280;44851;45.648;9.004;2023-06-10T06:56:24;98600.69;;;22.29;59.81
59063;BME280;44851;45.648;9.004;2023-06-10T06:58:50;98606.09;;;22.22;59.53
59063;BME280;44851;45.648;9.004;2023-06-10T07:01:15;98601.59;;;22.23;60.22
59063;BME280;44851;45.648;9.004;2023-06-10T07:03:41;98607.63;;;22.30;59.46
59063;BME280;44851;45.648;9.004;2023-06-10T07:06:06;98613.09;;;22.47;59.43
59063;BME280;44851;45.648;9.004;2023-06-10T07:08:32;98608.13;;;22.39;59.02
59063;BME280;44851;45.648;9.004;2023-06-10T07:10:57;98612.03;;;22.36;59.65
59063;BME280;44851;45.648;9.004;2023-06-10T07:13:23;98608.69;;;22.41;59.57
59063;BME280;44851;45.648;9.004;2023-06-10T07:15:48;98619.00;;;22.49;59.40
59063;BME280;44851;45.648;9.004;2023-06-10T07:18:15;98612.97;;;22.60;59.28
59063;BME280;44851;45.648;9.004;2023-06-10T07:20:41;98612.38;;;22.40;59.14
59063;BME280;44851;45.648;9.004;2023-06-10T07:23:06;98607.09;;;22.40;59.88
59063;BME280;44851;45.648;9.004;2023-06-10T07:25:32;98611.69;;;22.32;59.62
59063;BME280;44851;45.648;9.004;2023-06-10T07:27:57;98607.38;;;22.31;60.04
59063;BME280;44851;45.648;9.004;2023-06-10T07:30:23;98606.66;;;22.24;60.68
59063;BME280;44851;45.648;9.004;2023-06-10T07:32:48;98605.91;;;22.36;59.49
59063;BME280;44851;45.648;9.004;2023-06-10T07:35:14;98604.56;;;22.45;59.18
59063;BME280;44851;45.648;9.004;2023-06-10T07:37:39;98605.50;;;22.50;58.46
59063;BME280;44851;45.648;9.004;2023-06-10T07:40:05;98600.56;;;22.54;58.97
59063;BME280;44851;45.648;9.004;2023-06-10T07:42:37;98603.13;;;22.61;58.90
59063;BME280;44851;45.648;9.004;2023-06-10T07:45:03;98607.09;;;22.70;59.04
59063;BME280;44851;45.648;9.004;2023-06-10T07:47:30;98602.25;;;22.78;58.68
59063;BME280;44851;45.648;9.004;2023-06-10T07:49:55;98600.41;;;22.91;57.72
59063;BME280;44851;45.648;9.004;2023-06-10T07:52:21;98600.66;;;22.89;57.16
59063;BME280;44851;45.648;9.004;2023-06-10T07:54:46;98597.88;;;22.96;57.57
59063;BME280;44851;45.648;9.004;2023-06-10T07:57:11;98598.47;;;22.98;56.59
59063;BME280;44851;45.648;9.004;2023-06-10T07:59:38;98601.81;;;23.05;56.60
59063;BME280;44851;45.648;9.004;2023-06-10T08:02:04;98599.97;;;23.17;56.65
59063;BME280;44851;45.648;9.004;2023-06-10T08:04:29;98604.97;;;23.25;57.16
59063;BME280;44851;45.648;9.004;2023-06-10T08:06:56;98606.16;;;23.29;56.98
59063;BME280;44851;45.648;9.004;2023-06-10T08:09:21;98601.19;;;23.45;56.31
59063;BME280;44851;45.648;9.004;2023-06-10T08:11:48;98606.72;;;23.43;55.68
59063;BME280;44851;45.648;9.004;2023-06-10T08:14:14;98600.34;;;23.56;57.08
59063;BME280;44851;45.648;9.004;2023-06-10T08:16:39;98606.59;;;23.50;56.22
59063;BME280;44851;45.648;9.004;2023-06-10T08:19:05;98596.88;;;23.44;55.71
59063;BME280;44851;45.648;9.004;2023-06-10T08:21:30;98597.00;;;23.60;55.84
59063;BME280;44851;45.648;9.004;2023-06-10T08:23:56;98600.56;;;23.66;55.63
59063;BME280;44851;45.648;9.004;2023-06-10T08:26:22;98607.72;;;23.77;55.69
59063;BME280;44851;45.648;9.004;2023-06-10T08:28:47;98612.09;;;23.83;57.43
59063;BME280;44851;45.648;9.004;2023-06-10T08:31:13;98611.22;;;23.66;54.26
59063;BME280;44851;45.648;9.004;2023-06-10T08:33:38;98603.34;;;23.71;54.86
59063;BME280;44851;45.648;9.004;2023-06-10T08:36:04;98610.41;;;23.66;53.48
59063;BME280;44851;45.648;9.004;2023-06-10T08:38:29;98607.50;;;23.67;54.67
59063;BME280;44851;45.648;9.004;2023-06-10T08:40:57;98602.41;;;23.77;53.99
59063;BME280;44851;45.648;9.004;2023-06-10T08:43:38;98611.63;;;23.98;54.39
59063;BME280;44851;45.648;9.004;2023-06-10T08:46:06;98608.94;;;24.10;54.64
59063;BME280;44851;45.648;9.004;2023-06-10T08:48:35;98613.66;;;24.08;54.93
59063;BME280;44851;45.648;9.004;2023-06-10T08:51:03;98611.66;;;24.27;53.92
59063;BME280;44851;45.648;9.004;2023-06-10T08:53:31;98609.06;;;24.32;53.03
59063;BME280;44851;45.648;9.004;2023-06-10T08:56:00;98611.03;;;24.36;52.68
59063;BME280;44851;45.648;9.004;2023-06-10T08:58:29;98612.75;;;24.43;51.00
59063;BME280;44851;45.648;9.004;2023-06-10T09:00:59;98614.44;;;24.49;50.96
59063;BME280;44851;45.648;9.004;2023-06-10T09:03:25;98608.06;;;24.50;50.98
59063;BME280;44851;45.648;9.004;2023-06-10T09:05:52;98611.63;;;24.67;51.48
59063;BME280;44851;45.648;9.004;2023-06-10T09:08:18;98603.94;;;24.87;51.21
59063;BME280;44851;45.648;9.004;2023-06-10T09:10:44;98607.19;;;24.89;50.95
59063;BME280;44851;45.648;9.004;2023-06-10T09:13:10;98606.78;;;25.31;51.42
59063;BME280;44851;45.648;9.004;2023-06-10T09:15:35;98606.50;;;25.50;49.21
59063;BME280;44851;45.648;9.004;2023-06-10T09:18:01;98602.41;;;26.03;49.08
59063;BME280;44851;45.648;9.004;2023-06-10T09:20:27;98602.50;;;26.13;48.93
59063;BME280;44851;45.648;9.004;2023-06-10T09:22:53;98603.28;;;25.86;48.72
59063;BME280;44851;45.648;9.004;2023-06-10T09:25:18;98600.19;;;25.94;49.68
59063;BME280;44851;45.648;9.004;2023-06-10T09:30:29;98599.91;;;25.74;48.67
59063;BME280;44851;45.648;9.004;2023-06-10T09:32:56;98601.84;;;25.62;49.41
59063;BME280;44851;45.648;9.004;2023-06-10T09:35:23;98605.56;;;25.61;49.28
59063;BME280;44851;45.648;9.004;2023-06-10T09:37:53;98605.28;;;25.57;49.45
59063;BME280;44851;45.648;9.004;2023-06-10T09:40:19;98600.91;;;25.51;50.56
59063;BME280;44851;45.648;9.004;2023-06-10T09:42:45;98597.38;;;25.46;49.22
59063;BME280;44851;45.648;9.004;2023-06-10T09:45:10;98601.66;;;25.47;51.36
59063;BME280;44851;45.648;9.004;2023-06-10T09:47:36;98605.94;;;25.48;52.22
59063;BME280;44851;45.648;9.004;2023-06-10T09:50:01;98596.44;;;25.57;52.36
59063;BME280;44851;45.648;9.004;2023-06-10T09:52:28;98594.28;;;25.54;49.83
59063;BME280;44851;45.648;9.004;2023-06-10T09:54:59;98594.63;;;25.40;50.67
59063;BME280;44851;45.648;9.004;2023-06-10T09:57:30;98596.38;;;25.52;50.06
59063;BME280;44851;45.648;9.004;2023-06-10T09:59:56;98594.00;;;25.33;50.52
59063;BME280;44851;45.648;9.004;2023-06-10T10:02:21;98596.66;;;25.16;49.10
59063;BME280;44851;45.648;9.004;2023-06-10T10:04:47;98594.47;;;25.13;49.20
59063;BME280;44851;45.648;9.004;2023-06-10T10:07:12;98590.13;;;25.24;49.03
59063;BME280;44851;45.648;9.004;2023-06-10T10:09:40;98583.66;;;25.03;48.86
59063;BME280;44851;45.648;9.004;2023-06-10T10:12:15;98581.88;;;25.09;50.30
59063;BME280;44851;45.648;9.004;2023-06-10T10:14:45;98582.03;;;25.19;50.01
59063;BME280;44851;45.648;9.004;2023-06-10T10:17:13;98577.50;;;25.03;48.97
59063;BME280;44851;45.648;9.004;2023-06-10T10:19:46;98585.13;;;25.11;48.65
59063;BME280;44851;45.648;9.004;2023-06-10T10:22:25;98587.84;;;25.16;49.60
59063;BME280;44851;45.648;9.004;2023-06-10T10:24:55;98580.97;;;25.03;48.91
59063;BME280;44851;45.648;9.004;2023-06-10T10:27:27;98583.06;;;25.18;48.60
59063;BME280;44851;45.648;9.004;2023-06-10T10:29:54;98585.38;;;25.09;49.81
59063;BME280;44851;45.648;9.004;2023-06-10T10:32:36;98583.00;;;25.13;50.29
59063;BME280;44851;45.648;9.004;2023-06-10T10:35:13;98578.81;;;25.17;50.13
59063;BME280;44851;45.648;9.004;2023-06-10T10:37:41;98578.09;;;25.22;48.80
59063;BME280;44851;45.648;9.004;2023-06-10T10:40:08;98581.22;;;25.35;49.24
59063;BME280;44851;45.648;9.004;2023-06-10T10:42:34;98578.69;;;25.46;49.88
59063;BME280;44851;45.648;9.004;2023-06-10T10:45:00;98575.53;;;25.49;49.10
59063;BME280;44851;45.648;9.004;2023-06-10T10:47:27;98584.31;;;25.27;47.84
59063;BME280;44851;45.648;9.004;2023-06-10T10:49:56;98581.09;;;25.25;47.37
59063;BME280;44851;45.648;9.004;2023-06-10T10:52:24;98570.53;;;25.35;48.43
59063;BME280;44851;45.648;9.004;2023-06-10T10:54:52;98577.50;;;25.36;47.60
59063;BME280;44851;45.648;9.004;2023-06-10T10:57:20;98572.66;;;25.33;46.94
59063;BME280;44851;45.648;9.004;2023-06-10T10:59:50;98569.59;;;25.08;46.47
59063;BME280;44851;45.648;9.004;2023-06-10T11:02:43;98567.91;;;25.02;46.46
59063;BME280;44851;45.648;9.004;2023-06-10T11:05:14;98572.84;;;25.10;48.17
59063;BME280;44851;45.648;9.004;2023-06-10T11:07:40;98569.94;;;24.95;47.07
59063;BME280;44851;45.648;9.004;2023-06-10T11:10:13;98578.75;;;24.95;46.98
59063;BME280;44851;45.648;9.004;2023-06-10T11:15:09;98573.47;;;25.17;48.43
59063;BME280;44851;45.648;9.004;2023-06-10T11:17:35;98571.19;;;25.09;48.00
59063;BME280;44851;45.648;9.004;2023-06-10T11:20:00;98569.59;;;25.08;49.08
59063;BME280;44851;45.648;9.004;2023-06-10T11:22:26;98572.91;;;25.15;49.07
59063;BME280;44851;45.648;9.004;2023-06-10T11:24:52;98566.69;;;25.09;48.79
59063;BME280;44851;45.648;9.004;2023-06-10T11:27:19;98569.59;;;25.08;49.26
59063;BME280;44851;45.648;9.004;2023-06-10T11:32:32;98576.81;;;24.90;49.81
59063;BME280;44851;45.648;9.004;2023-06-10T11:34:58;98573.00;;;24.86;49.77
59063;BME280;44851;45.648;9.004;2023-06-10T11:37:24;98579.53;;;24.96;51.32
59063;BME280;44851;45.648;9.004;2023-06-10T11:39:54;98575.09;;;25.01;50.72
59063;BME280;44851;45.648;9.004;2023-06-10T11:42:20;98573.94;;;25.14;51.35
59063;BME280;44851;45.648;9.004;2023-06-10T11:44:50;98574.63;;;25.21;49.83
59063;BME280;44851;45.648;9.004;2023-06-10T11:47:17;98573.16;;;24.97;49.84
59063;BME280;44851;45.648;9.004;2023-06-10T11:49:43;98571.16;;;25.21;49.99
59063;BME280;44851;45.648;9.004;2023-06-10T11:52:09;98573.66;;;25.27;50.42
59063;BME280;44851;45.648;9.004;2023-06-10T11:54:36;98561.03;;;25.06;50.01
59063;BME280;44851;45.648;9.004;2023-06-10T11:57:01;98558.84;;;25.36;51.21
59063;BME280;44851;45.648;9.004;2023-06-10T11:59:28;98560.06;;;25.29;50.11
59063;BME280;44851;45.648;9.004;2023-06-10T12:01:54;98557.78;;;25.37;50.65
59063;BME280;44851;45.648;9.004;2023-06-10T12:04:20;98558.59;;;25.60;51.82
59063;BME280;44851;45.648;9.004;2023-06-10T12:06:48;98555.78;;;25.50;49.88
59063;BME280;44851;45.648;9.004;2023-06-10T12:11:42;98555.84;;;25.77;49.45
59063;BME280;44851;45.648;9.004;2023-06-10T12:14:08;98551.31;;;25.77;49.14
59063;BME280;44851;45.648;9.004;2023-06-10T12:16:34;98552.13;;;25.78;49.97
59063;BME280;44851;45.648;9.004;2023-06-10T12:19:04;98550.72;;;25.70;48.68
59063;BME280;44851;45.648;9.004;2023-06-10T12:21:32;98547.97;;;25.43;49.55
59063;BME280;44851;45.648;9.004;2023-06-10T12:24:11;98547.25;;;25.48;50.81
59063;BME280;44851;45.648;9.004;2023-06-10T12:26:41;98541.41;;;25.51;50.31
59063;BME280;44851;45.648;9.004;2023-06-10T12:29:25;98537.38;;;25.70;50.24
59063;BME280;44851;45.648;9.004;2023-06-10T12:31:55;98544.53;;;25.86;50.92
59063;BME280;44851;45.648;9.004;2023-06-10T12:34:37;98539.91;;;26.04;50.45
59063;BME280;44851;45.648;9.004;2023-06-10T12:37:10;98532.78;;;25.87;49.53
59063;BME280;44851;45.648;9.004;2023-06-10T12:39:40;98541.53;;;25.83;48.95
59063;BME280;44851;45.648;9.004;2023-06-10T12:42:12;98543.22;;;25.89;48.86
59063;BME280;44851;45.648;9.004;2023-06-10T12:44:40;98542.91;;;25.85;48.41
59063;BME280;44851;45.648;9.004;2023-06-10T12:47:10;98537.06;;;25.88;47.88
59063;BME280;44851;45.648;9.004;2023-06-10T12:49:40;98533.16;;;25.96;48.57
59063;BME280;44851;45.648;9.004;2023-06-10T12:52:06;98539.94;;;26.09;48.43
59063;BME280;44851;45.648;9.004;2023-06-10T12:54:34;98530.38;;;26.13;48.08
59063;BME280;44851;45.648;9.004;2023-06-10T12:56:59;98533.75;;;26.03;46.45
59063;BME280;44851;45.648;9.004;2023-06-10T12:59:28;98528.16;;;26.05;46.84
59063;BME280;44851;45.648;9.004;2023-06-10T13:01:54;98530.47;;;25.96;47.22
59063;BME280;44851;45.648;9.004;2023-06-10T13:04:21;98528.63;;;25.97;47.69
59063;BME280;44851;45.648;9.004;2023-06-10T13:06:47;98524.78;;;25.87;47.63
59063;BME280;44851;45.648;9.004;2023-06-10T13:09:15;98519.66;;;26.08;49.69
59063;BME280;44851;45.648;9.004;2023-06-10T13:11:41;98511.47;;;25.92;47.13